sensor_id;sensor_type;location;lat;lon;timestamp;P1;durP1;ratioP1;P2;durP2;ratioP2
22289;SDS011;11313;50.116;8.424;2023-06-14T00:01:00;3.95;;;3.55;;
22289;SDS011;11313;50.116;8.424;2023-06-14T00:03:28;3.90;;;3.50;;
22289;SDS011;11313;50.116;8.424;2023-06-14T00:05:54;4.75;;;3.90;;
22289;SDS011;11313;50.116;8.424;2023-06-14T00:08:19;4.35;;;3.50;;
22289;SDS011;11313;50.116;8.424;2023-06-14T00:10:47;4.22;;;3.45;;
22289;SDS011;11313;50.116;8.424;2023-06-14T00:13:13;4.15;;;3.75;;
22289;SDS011;11313;50.116;8.424;2023-06-14T00:15:39;3.58;;;3.28;;
22289;SDS011;11313;50.116;8.424;2023-06-14T00:18:05;4.10;;;3.47;;
22289;SDS011;11313;50.116;8.424;2023-06-14T00:20:31;4.10;;;3.40;;
22289;SDS011;11313;50.116;8.424;2023-06-14T00:22:58;3.85;;;3.17;;
22289;SDS011;11313;50.116;8.424;2023-06-14T00:25:25;4.07;;;3.67;;
22289;SDS011;11313;50.116;8.424;2023-06-14T00:27:51;4.20;;;3.53;;
22289;SDS011;11313;50.116;8.424;2023-06-14T00:30:17;4.25;;;3.50;;
22289;SDS011;11313;50.116;8.424;2023-06-14T00:32:43;4.00;;;3.33;;
22289;SDS011;11313;50.116;8.424;2023-06-14T00:35:09;4.22;;;3.80;;
22289;SDS011;11313;50.116;8.424;2023-06-14T00:37:34;4.10;;;3.70;;
22289;SDS011;11313;50.116;8.424;2023-06-14T00:40:00;5.03;;;3.80;;
22289;SDS011;11313;50.116;8.424;2023-06-14T00:42:26;3.95;;;3.28;;
22289;SDS011;11313;50.116;8.424;2023-06-14T00:44:52;3.53;;;3.15;;
22289;SDS011;11313;50.116;8.424;2023-06-14T00:47:19;4.28;;;3.40;;
22289;SDS011;11313;50.116;8.424;2023-06-14T00:49:45;4.55;;;3.67;;
22289;SDS011;11313;50.116;8.424;2023-06-14T00:52:18;3.70;;;3.30;;
22289;SDS011;11313;50.116;8.424;2023-06-14T00:54:44;4.53;;;3.60;;
22289;SDS011;11313;50.116;8.424;2023-06-14T00:57:10;3.55;;;3.25;;
22289;SDS011;11313;50.116;8.424;2023-06-14T00:59:38;4.97;;;3.40;;
22289;SDS011;11313;50.116;8.424;2023-06-14T01:02:08;4.45;;;3.30;;
22289;SDS011;11313;50.116;8.424;2023-06-14T01:04:33;3.72;;;3.42;;
22289;SDS011;11313;50.116;8.424;2023-06-14T01:07:01;4.25;;;3.25;;
22289;SDS011;11313;50.116;8.424;2023-06-14T01:09:47;4.60;;;3.90;;
22289;SDS011;11313;50.116;8.424;2023-06-14T01:15:16;4.00;;;3.47;;
22289;SDS011;11313;50.116;8.424;2023-06-14T01:17:42;5.47;;;3.58;;
22289;SDS011;11313;50.116;8.424;2023-06-14T01:20:11;3.50;;;3.00;;
22289;SDS011;11313;50.116;8.424;2023-06-14T01:22:50;3.88;;;3.40;;
22289;SDS011;11313;50.116;8.424;2023-06-14T01:25:17;4.18;;;3.40;;
22289;SDS011;11313;50.116;8.424;2023-06-14T01:27:45;3.75;;;3.30;;
22289;SDS011;11313;50.116;8.424;2023-06-14T01:30:16;4.03;;;2.92;;
22289;SDS011;11313;50.116;8.424;2023-06-14T01:32:42;3.58;;;3.20;;
22289;SDS011;11313;50.116;8.424;2023-06-14T01:35:09;3.50;;;3.20;;
22289;SDS011;11313;50.116;8.424;2023-06-14T01:37:35;3.45;;;3.15;;
22289;SDS011;11313;50.116;8.424;2023-06-14T01:40:02;4.38;;;3.63;;
22289;SDS011;11313;50.116;8.424;2023-06-14T01:42:31;3.40;;;3.10;;
22289;SDS011;11313;50.116;8.424;2023-06-14T01:45:00;4.40;;;3.40;;
22289;SDS011;11313;50.116;8.424;2023-06-14T01:47:27;3.40;;;3.10;;
22289;SDS011;11313;50.116;8.424;2023-06-14T01:49:52;3.40;;;3.10;;
22289;SDS011;11313;50.116;8.424;2023-06-14T01:52:18;3.78;;;3.40;;
22289;SDS011;11313;50.116;8.424;2023-06-14T01:54:44;3.50;;;3.20;;
22289;SDS011;11313;50.116;8.424;2023-06-14T01:57:10;3.40;;;3.10;;
22289;SDS011;11313;50.116;8.424;2023-06-14T01:59:36;3.78;;;3.15;;
22289;SDS011;11313;50.116;8.424;2023-06-14T02:02:02;4.05;;;3.10;;
22289;SDS011;11313;50.116;8.424;2023-06-14T02:04:28;3.88;;;3.20;;
22289;SDS011;11313;50.116;8.424;2023-06-14T02:06:53;3.25;;;2.95;;
22289;SDS011;11313;50.116;8.424;2023-06-14T02:09:19;3.22;;;2.92;;
22289;SDS011;11313;50.116;8.424;2023-06-14T02:11:45;3.45;;;3.13;;
22289;SDS011;11313;50.116;8.424;2023-06-14T02:14:10;4.03;;;3.15;;
22289;SDS011;11313;50.116;8.424;2023-06-14T02:16:36;4.15;;;3.60;;
22289;SDS011;11313;50.116;8.424;2023-06-14T02:19:03;3.60;;;3.30;;
22289;SDS011;11313;50.116;8.424;2023-06-14T02:21:30;3.65;;;3.05;;
22289;SDS011;11313;50.116;8.424;2023-06-14T02:23:55;3.47;;;3.17;;
22289;SDS011;11313;50.116;8.424;2023-06-14T02:26:21;4.25;;;3.25;;
22289;SDS011;11313;50.116;8.424;2023-06-14T02:28:47;3.75;;;3.03;;
22289;SDS011;11313;50.116;8.424;2023-06-14T02:31:13;3.17;;;2.88;;
22289;SDS011;11313;50.116;8.424;2023-06-14T02:33:38;4.43;;;3.20;;
22289;SDS011;11313;50.116;8.424;2023-06-14T02:36:04;3.58;;;3.28;;
22289;SDS011;11313;50.116;8.424;2023-06-14T02:38:30;3.50;;;3.20;;
22289;SDS011;11313;50.116;8.424;2023-06-14T02:40:56;4.13;;;3.20;;
22289;SDS011;11313;50.116;8.424;2023-06-14T02:43:24;4.20;;;3.42;;
22289;SDS011;11313;50.116;8.424;2023-06-14T02:45:49;4.03;;;3.60;;
22289;SDS011;11313;50.116;8.424;2023-06-14T02:48:15;3.80;;;3.40;;
22289;SDS011;11313;50.116;8.424;2023-06-14T02:50:41;3.65;;;3.17;;
22289;SDS011;11313;50.116;8.424;2023-06-14T02:53:07;3.80;;;3.20;;
22289;SDS011;11313;50.116;8.424;2023-06-14T02:55:32;3.45;;;3.00;;
22289;SDS011;11313;50.116;8.424;2023-06-14T02:57:58;3.20;;;2.90;;
22289;SDS011;11313;50.116;8.424;2023-06-14T03:00:23;3.53;;;3.22;;
22289;SDS011;11313;50.116;8.424;2023-06-14T03:02:49;3.88;;;3.20;;
22289;SDS011;11313;50.116;8.424;2023-06-14T03:05:16;3.35;;;3.05;;
22289;SDS011;11313;50.116;8.424;2023-06-14T03:07:46;3.28;;;2.83;;
22289;SDS011;11313;50.116;8.424;2023-06-14T03:10:12;3.10;;;2.80;;
22289;SDS011;11313;50.116;8.424;2023-06-14T03:12:38;3.35;;;3.05;;
22289;SDS011;11313;50.116;8.424;2023-06-14T03:15:04;3.50;;;3.20;;
22289;SDS011;11313;50.116;8.424;2023-06-14T03:17:30;2.95;;;2.70;;
22289;SDS011;11313;50.116;8.424;2023-06-14T03:19:58;3.33;;;3.00;;
22289;SDS011;11313;50.116;8.424;2023-06-14T03:22:25;3.40;;;2.80;;
22289;SDS011;11313;50.116;8.424;2023-06-14T03:24:50;4.03;;;2.97;;
22289;SDS011;11313;50.116;8.424;2023-06-14T03:27:17;3.58;;;3.20;;
22289;SDS011;11313;50.116;8.424;2023-06-14T03:29:43;3.53;;;3.15;;
22289;SDS011;11313;50.116;8.424;2023-06-14T03:32:09;3.35;;;3.05;;
22289;SDS011;11313;50.116;8.424;2023-06-14T03:34:34;3.15;;;2.85;;
22289;SDS011;11313;50.116;8.424;2023-06-14T03:37:00;3.20;;;2.90;;
22289;SDS011;11313;50.116;8.424;2023-06-14T03:39:26;3.50;;;3.20;;
22289;SDS011;11313;50.116;8.424;2023-06-14T03:41:51;3.10;;;2.80;;
22289;SDS011;11313;50.116;8.424;2023-06-14T03:44:17;3.22;;;2.92;;
22289;SDS011;11313;50.116;8.424;2023-06-14T03:46:44;3.22;;;2.85;;
22289;SDS011;11313;50.116;8.424;2023-06-14T03:49:10;3.40;;;3.10;;
22289;SDS011;11313;50.116;8.424;2023-06-14T03:51:36;3.92;;;2.92;;
22289;SDS011;11313;50.116;8.424;2023-06-14T03:54:02;3.28;;;2.97;;
22289;SDS011;11313;50.116;8.424;2023-06-14T03:56:27;3.50;;;3.20;;
22289;SDS011;11313;50.116;8.424;2023-06-14T03:58:53;2.90;;;2.55;;
22289;SDS011;11313;50.116;8.424;2023-06-14T04:01:18;3.47;;;3.17;;
22289;SDS011;11313;50.116;8.424;2023-06-14T04:03:44;4.50;;;3.10;;
22289;SDS011;11313;50.116;8.424;2023-06-14T04:06:09;3.20;;;2.90;;
22289;SDS011;11313;50.116;8.424;2023-06-14T04:08:35;3.70;;;3.40;;
22289;SDS011;11313;50.116;8.424;2023-06-14T04:11:01;3.25;;;2.95;;
22289;SDS011;11313;50.116;8.424;2023-06-14T04:13:26;3.22;;;2.92;;
22289;SDS011;11313;50.116;8.424;2023-06-14T04:15:52;3.17;;;2.88;;
22289;SDS011;11313;50.116;8.424;2023-06-14T04:18:17;3.15;;;2.83;;
22289;SDS011;11313;50.116;8.424;2023-06-14T04:20:44;2.95;;;2.72;;
22289;SDS011;11313;50.116;8.424;2023-06-14T04:23:17;3.80;;;3.25;;
22289;SDS011;11313;50.116;8.424;2023-06-14T04:25:43;5.47;;;3.40;;
22289;SDS011;11313;50.116;8.424;2023-06-14T04:28:14;11.38;;;4.15;;
22289;SDS011;11313;50.116;8.424;2023-06-14T04:30:40;9.32;;;4.70;;
22289;SDS011;11313;50.116;8.424;2023-06-14T04:33:06;8.32;;;4.68;;
22289;SDS011;11313;50.116;8.424;2023-06-14T04:35:32;8.65;;;4.63;;
22289;SDS011;11313;50.116;8.424;2023-06-14T04:38:00;5.65;;;4.55;;
22289;SDS011;11313;50.116;8.424;2023-06-14T04:40:35;5.50;;;4.72;;
22289;SDS011;11313;50.116;8.424;2023-06-14T04:43:07;9.82;;;5.60;;
22289;SDS011;11313;50.116;8.424;2023-06-14T04:45:42;11.43;;;5.18;;
22289;SDS011;11313;50.116;8.424;2023-06-14T04:48:09;9.45;;;5.43;;
22289;SDS011;11313;50.116;8.424;2023-06-14T04:50:35;8.82;;;5.25;;
22289;SDS011;11313;50.116;8.424;2023-06-14T04:53:01;6.40;;;4.60;;
22289;SDS011;11313;50.116;8.424;2023-06-14T04:55:26;11.07;;;4.85;;
22289;SDS011;11313;50.116;8.424;2023-06-14T04:57:52;8.93;;;5.03;;
22289;SDS011;11313;50.116;8.424;2023-06-14T05:00:20;9.60;;;5.00;;
22289;SDS011;11313;50.116;8.424;2023-06-14T05:02:46;7.63;;;5.00;;
22289;SDS011;11313;50.116;8.424;2023-06-14T05:05:12;7.35;;;4.80;;
22289;SDS011;11313;50.116;8.424;2023-06-14T05:07:38;9.15;;;4.30;;
22289;SDS011;11313;50.116;8.424;2023-06-14T05:10:03;11.38;;;4.82;;
22289;SDS011;11313;50.116;8.424;2023-06-14T05:12:30;9.05;;;4.53;;
22289;SDS011;11313;50.116;8.424;2023-06-14T05:14:55;12.02;;;4.65;;
22289;SDS011;11313;50.116;8.424;2023-06-14T05:17:23;11.73;;;5.00;;
22289;SDS011;11313;50.116;8.424;2023-06-14T05:19:49;8.38;;;4.80;;
22289;SDS011;11313;50.116;8.424;2023-06-14T05:22:14;6.35;;;4.53;;
22289;SDS011;11313;50.116;8.424;2023-06-14T05:24:40;12.05;;;5.15;;
22289;SDS011;11313;50.116;8.424;2023-06-14T05:27:06;15.10;;;6.20;;
22289;SDS011;11313;50.116;8.424;2023-06-14T05:29:32;8.80;;;4.65;;
22289;SDS011;11313;50.116;8.424;2023-06-14T05:31:57;8.52;;;4.47;;
22289;SDS011;11313;50.116;8.424;2023-06-14T05:34:23;8.13;;;5.03;;
22289;SDS011;11313;50.116;8.424;2023-06-14T05:36:48;7.43;;;4.80;;
22289;SDS011;11313;50.116;8.424;2023-06-14T05:39:14;8.15;;;4.50;;
22289;SDS011;11313;50.116;8.424;2023-06-14T05:41:39;8.85;;;4.57;;
22289;SDS011;11313;50.116;8.424;2023-06-14T05:44:05;7.82;;;4.57;;
22289;SDS011;11313;50.116;8.424;2023-06-14T05:46:30;9.60;;;4.70;;
22289;SDS011;11313;50.116;8.424;2023-06-14T05:48:56;16.45;;;4.55;;
22289;SDS011;11313;50.116;8.424;2023-06-14T05:51:22;7.57;;;4.85;;
22289;SDS011;11313;50.116;8.424;2023-06-14T05:53:49;7.13;;;4.20;;
22289;SDS011;11313;50.116;8.424;2023-06-14T05:56:15;11.13;;;4.32;;
22289;SDS011;11313;50.116;8.424;2023-06-14T05:58:42;8.48;;;4.28;;
22289;SDS011;11313;50.116;8.424;2023-06-14T06:01:08;7.15;;;4.30;;
22289;SDS011;11313;50.116;8.424;2023-06-14T06:03:34;5.40;;;4.07;;
22289;SDS011;11313;50.116;8.424;2023-06-14T06:05:59;7.35;;;4.63;;
22289;SDS011;11313;50.116;8.424;2023-06-14T06:08:26;5.43;;;3.80;;
22289;SDS011;11313;50.116;8.424;2023-06-14T06:10:51;4.75;;;3.85;;
22289;SDS011;11313;50.116;8.424;2023-06-14T06:13:17;6.90;;;4.22;;
22289;SDS011;11313;50.116;8.424;2023-06-14T06:15:43;5.72;;;3.83;;
22289;SDS011;11313;50.116;8.424;2023-06-14T06:18:08;6.45;;;3.95;;
22289;SDS011;11313;50.116;8.424;2023-06-14T06:20:34;4.60;;;3.60;;
22289;SDS011;11313;50.116;8.424;2023-06-14T06:23:01;4.82;;;3.58;;
22289;SDS011;11313;50.116;8.424;2023-06-14T06:25:26;5.85;;;3.55;;
22289;SDS011;11313;50.116;8.424;2023-06-14T06:27:53;4.90;;;3.42;;
22289;SDS011;11313;50.116;8.424;2023-06-14T06:30:19;7.50;;;3.67;;
22289;SDS011;11313;50.116;8.424;2023-06-14T06:32:45;7.05;;;3.55;;
22289;SDS011;11313;50.116;8.424;2023-06-14T06:35:11;6.68;;;3.67;;
22289;SDS011;11313;50.116;8.424;2023-06-14T06:37:37;4.30;;;3.47;;
22289;SDS011;11313;50.116;8.424;2023-06-14T06:40:03;4.28;;;3.30;;
22289;SDS011;11313;50.116;8.424;2023-06-14T06:42:30;4.25;;;3.50;;
22289;SDS011;11313;50.116;8.424;2023-06-14T06:44:56;6.60;;;3.25;;
22289;SDS011;11313;50.116;8.424;2023-06-14T06:47:22;5.43;;;3.33;;
22289;SDS011;11313;50.116;8.424;2023-06-14T06:49:47;4.28;;;3.53;;
22289;SDS011;11313;50.116;8.424;2023-06-14T06:52:13;5.28;;;3.47;;
22289;SDS011;11313;50.116;8.424;2023-06-14T06:54:38;4.28;;;3.10;;
22289;SDS011;11313;50.116;8.424;2023-06-14T06:57:04;5.65;;;3.40;;
22289;SDS011;11313;50.116;8.424;2023-06-14T06:59:31;3.72;;;2.95;;
22289;SDS011;11313;50.116;8.424;2023-06-14T07:01:57;4.78;;;3.10;;
22289;SDS011;11313;50.116;8.424;2023-06-14T07:04:22;4.53;;;3.17;;
22289;SDS011;11313;50.116;8.424;2023-06-14T07:06:48;4.43;;;3.17;;
22289;SDS011;11313;50.116;8.424;2023-06-14T07:09:13;3.90;;;3.20;;
22289;SDS011;11313;50.116;8.424;2023-06-14T07:11:41;4.20;;;3.22;;
22289;SDS011;11313;50.116;8.424;2023-06-14T07:14:09;4.07;;;3.20;;
22289;SDS011;11313;50.116;8.424;2023-06-14T07:16:35;3.65;;;2.92;;
22289;SDS011;11313;50.116;8.424;2023-06-14T07:19:01;3.17;;;2.80;;
22289;SDS011;11313;50.116;8.424;2023-06-14T07:21:27;4.78;;;3.08;;
22289;SDS011;11313;50.116;8.424;2023-06-14T07:23:53;3.88;;;3.00;;
22289;SDS011;11313;50.116;8.424;2023-06-14T07:26:19;4.70;;;3.17;;
22289;SDS011;11313;50.116;8.424;2023-06-14T07:28:44;3.80;;;2.88;;
22289;SDS011;11313;50.116;8.424;2023-06-14T07:31:11;4.20;;;3.10;;
22289;SDS011;11313;50.116;8.424;2023-06-14T07:33:37;3.35;;;2.80;;
22289;SDS011;11313;50.116;8.424;2023-06-14T07:36:03;3.55;;;2.88;;
22289;SDS011;11313;50.116;8.424;2023-06-14T07:38:28;3.15;;;2.75;;
22289;SDS011;11313;50.116;8.424;2023-06-14T07:40:54;3.30;;;2.90;;
22289;SDS011;11313;50.116;8.424;2023-06-14T07:43:19;3.03;;;2.72;;
22289;SDS011;11313;50.116;8.424;2023-06-14T07:45:45;3.92;;;2.92;;
22289;SDS011;11313;50.116;8.424;2023-06-14T07:48:11;3.92;;;2.42;;
22289;SDS011;11313;50.116;8.424;2023-06-14T07:50:36;4.80;;;2.90;;
22289;SDS011;11313;50.116;8.424;2023-06-14T07:53:02;3.53;;;2.70;;
22289;SDS011;11313;50.116;8.424;2023-06-14T07:55:27;4.25;;;2.83;;
22289;SDS011;11313;50.116;8.424;2023-06-14T07:57:53;3.60;;;2.78;;
22289;SDS011;11313;50.116;8.424;2023-06-14T08:00:19;3.17;;;2.70;;
22289;SDS011;11313;50.116;8.424;2023-06-14T08:02:45;3.85;;;2.60;;
22289;SDS011;11313;50.116;8.424;2023-06-14T08:05:11;2.88;;;2.58;;
22289;SDS011;11313;50.116;8.424;2023-06-14T08:07:37;3.63;;;3.08;;
22289;SDS011;11313;50.116;8.424;2023-06-14T08:10:04;3.58;;;2.70;;
22289;SDS011;11313;50.116;8.424;2023-06-14T08:12:31;3.33;;;2.65;;
22289;SDS011;11313;50.116;8.424;2023-06-14T08:14:56;2.80;;;2.55;;
22289;SDS011;11313;50.116;8.424;2023-06-14T08:17:22;3.08;;;2.67;;
22289;SDS011;11313;50.116;8.424;2023-06-14T08:19:47;4.10;;;2.70;;
22289;SDS011;11313;50.116;8.424;2023-06-14T08:22:13;2.72;;;2.53;;
22289;SDS011;11313;50.116;8.424;2023-06-14T08:24:38;3.03;;;2.55;;
22289;SDS011;11313;50.116;8.424;2023-06-14T08:27:05;4.25;;;2.60;;
22289;SDS011;11313;50.116;8.424;2023-06-14T08:29:31;3.00;;;2.50;;
22289;SDS011;11313;50.116;8.424;2023-06-14T08:31:57;3.60;;;2.60;;
22289;SDS011;11313;50.116;8.424;2023-06-14T08:34:22;3.75;;;2.58;;
22289;SDS011;11313;50.116;8.424;2023-06-14T08:36:48;3.90;;;2.50;;
22289;SDS011;11313;50.116;8.424;2023-06-14T08:39:17;3.33;;;2.78;;
22289;SDS011;11313;50.116;8.424;2023-06-14T08:41:43;3.15;;;2.30;;
22289;SDS011;11313;50.116;8.424;2023-06-14T08:44:11;3.10;;;2.70;;
22289;SDS011;11313;50.116;8.424;2023-06-14T08:46:37;2.80;;;2.60;;
22289;SDS011;11313;50.116;8.424;2023-06-14T08:49:03;3.65;;;2.60;;
22289;SDS011;11313;50.116;8.424;2023-06-14T08:51:31;2.53;;;2.33;;
22289;SDS011;11313;50.116;8.424;2023-06-14T08:54:01;3.28;;;2.50;;
22289;SDS011;11313;50.116;8.424;2023-06-14T08:56:29;2.50;;;2.30;;
22289;SDS011;11313;50.116;8.424;2023-06-14T08:58:56;3.65;;;2.40;;
22289;SDS011;11313;50.116;8.424;2023-06-14T09:03:51;2.42;;;2.22;;
22289;SDS011;11313;50.116;8.424;2023-06-14T09:06:19;2.47;;;2.28;;
22289;SDS011;11313;50.116;8.424;2023-06-14T09:08:47;3.10;;;2.53;;
22289;SDS011;11313;50.116;8.424;2023-06-14T09:11:14;2.90;;;2.05;;
22289;SDS011;11313;50.116;8.424;2023-06-14T09:13:43;2.30;;;2.10;;
22289;SDS011;11313;50.116;8.424;2023-06-14T09:16:10;2.13;;;1.92;;
22289;SDS011;11313;50.116;8.424;2023-06-14T09:18:39;2.30;;;2.10;;
22289;SDS011;11313;50.116;8.424;2023-06-14T09:23:39;3.28;;;2.33;;
22289;SDS011;11313;50.116;8.424;2023-06-14T09:26:09;2.50;;;2.30;;
22289;SDS011;11313;50.116;8.424;2023-06-14T09:28:36;2.22;;;2.03;;
22289;SDS011;11313;50.116;8.424;2023-06-14T09:31:05;3.00;;;2.20;;
22289;SDS011;11313;50.116;8.424;2023-06-14T09:33:33;2.35;;;2.15;;
22289;SDS011;11313;50.116;8.424;2023-06-14T09:35:59;2.45;;;2.10;;
22289;SDS011;11313;50.116;8.424;2023-06-14T09:38:24;2.25;;;2.05;;
22289;SDS011;11313;50.116;8.424;2023-06-14T09:40:51;2.28;;;2.08;;
22289;SDS011;11313;50.116;8.424;2023-06-14T09:43:16;2.17;;;1.98;;
22289;SDS011;11313;50.116;8.424;2023-06-14T09:45:43;3.53;;;2.00;;
22289;SDS011;11313;50.116;8.424;2023-06-14T09:48:10;2.60;;;2.20;;
22289;SDS011;11313;50.116;8.424;2023-06-14T09:50:36;2.30;;;2.05;;
22289;SDS011;11313;50.116;8.424;2023-06-14T09:53:03;2.38;;;2.17;;
22289;SDS011;11313;50.116;8.424;2023-06-14T09:55:31;2.28;;;1.92;;
22289;SDS011;11313;50.116;8.424;2023-06-14T09:58:00;2.50;;;2.00;;
22289;SDS011;11313;50.116;8.424;2023-06-14T10:03:00;2.67;;;2.00;;
22289;SDS011;11313;50.116;8.424;2023-06-14T10:05:28;2.05;;;1.88;;
22289;SDS011;11313;50.116;8.424;2023-06-14T10:08:04;3.67;;;2.15;;
22289;SDS011;11313;50.116;8.424;2023-06-14T10:10:32;2.08;;;1.88;;
22289;SDS011;11313;50.116;8.424;2023-06-14T10:12:58;2.22;;;2.03;;
22289;SDS011;11313;50.116;8.424;2023-06-14T10:15:30;2.28;;;1.90;;
22289;SDS011;11313;50.116;8.424;2023-06-14T10:18:28;2.30;;;1.80;;
22289;SDS011;11313;50.116;8.424;2023-06-14T10:21:01;1.80;;;1.70;;
22289;SDS011;11313;50.116;8.424;2023-06-14T10:23:29;2.10;;;1.90;;
22289;SDS011;11313;50.116;8.424;2023-06-14T10:25:57;2.28;;;1.90;;
22289;SDS011;11313;50.116;8.424;2023-06-14T10:28:24;2.13;;;1.77;;
22289;SDS011;11313;50.116;8.424;2023-06-14T10:31:04;1.90;;;1.63;;
22289;SDS011;11313;50.116;8.424;2023-06-14T10:33:53;1.85;;;1.75;;
22289;SDS011;11313;50.116;8.424;2023-06-14T10:39:06;1.80;;;1.70;;
22289;SDS011;11313;50.116;8.424;2023-06-14T10:41:40;2.10;;;1.70;;
22289;SDS011;11313;50.116;8.424;2023-06-14T10:46:37;2.13;;;1.92;;
22289;SDS011;11313;50.116;8.424;2023-06-14T10:49:03;2.00;;;1.80;;
22289;SDS011;11313;50.116;8.424;2023-06-14T10:51:29;1.80;;;1.70;;
22289;SDS011;11313;50.116;8.424;2023-06-14T10:54:11;1.92;;;1.80;;
22289;SDS011;11313;50.116;8.424;2023-06-14T10:56:37;2.45;;;1.70;;
22289;SDS011;11313;50.116;8.424;2023-06-14T10:59:03;2.05;;;1.85;;
22289;SDS011;11313;50.116;8.424;2023-06-14T11:01:31;2.88;;;1.75;;
22289;SDS011;11313;50.116;8.424;2023-06-14T11:04:00;3.30;;;1.80;;
22289;SDS011;11313;50.116;8.424;2023-06-14T11:06:39;1.65;;;1.55;;
22289;SDS011;11313;50.116;8.424;2023-06-14T11:09:26;1.70;;;1.60;;
22289;SDS011;11313;50.116;8.424;2023-06-14T11:12:09;2.15;;;1.80;;
22289;SDS011;11313;50.116;8.424;2023-06-14T11:14:36;2.15;;;1.73;;
22289;SDS011;11313;50.116;8.424;2023-06-14T11:17:03;3.65;;;1.90;;
22289;SDS011;11313;50.116;8.424;2023-06-14T11:19:29;1.85;;;1.75;;
22289;SDS011;11313;50.116;8.424;2023-06-14T11:21:55;1.83;;;1.60;;
22289;SDS011;11313;50.116;8.424;2023-06-14T11:24:20;1.98;;;1.80;;
22289;SDS011;11313;50.116;8.424;2023-06-14T11:26:46;2.17;;;1.80;;
22289;SDS011;11313;50.116;8.424;2023-06-14T11:29:14;2.05;;;1.77;;
22289;SDS011;11313;50.116;8.424;2023-06-14T11:31:44;1.80;;;1.70;;
22289;SDS011;11313;50.116;8.424;2023-06-14T11:34:10;2.25;;;1.80;;
22289;SDS011;11313;50.116;8.424;2023-06-14T11:36:38;1.80;;;1.70;;
22289;SDS011;11313;50.116;8.424;2023-06-14T11:39:04;1.60;;;1.50;;
22289;SDS011;11313;50.116;8.424;2023-06-14T11:41:38;1.63;;;1.50;;
22289;SDS011;11313;50.116;8.424;2023-06-14T11:44:06;1.70;;;1.60;;
22289;SDS011;11313;50.116;8.424;2023-06-14T11:46:32;1.65;;;1.50;;
22289;SDS011;11313;50.116;8.424;2023-06-14T11:48:58;1.70;;;1.60;;
22289;SDS011;11313;50.116;8.424;2023-06-14T11:51:23;1.73;;;1.63;;
22289;SDS011;11313;50.116;8.424;2023-06-14T11:53:49;1.70;;;1.60;;
22289;SDS011;11313;50.116;8.424;2023-06-14T11:56:15;1.73;;;1.63;;
22289;SDS011;11313;50.116;8.424;2023-06-14T11:58:42;1.73;;;1.63;;
22289;SDS011;11313;50.116;8.424;2023-06-14T12:01:08;2.22;;;1.40;;
22289;SDS011;11313;50.116;8.424;2023-06-14T12:03:34;1.85;;;1.73;;
22289;SDS011;11313;50.116;8.424;2023-06-14T12:08:36;3.03;;;1.52;;
22289;SDS011;11313;50.116;8.424;2023-06-14T12:11:06;1.83;;;1.70;;
22289;SDS011;11313;50.116;8.424;2023-06-14T12:13:37;2.65;;;1.80;;
22289;SDS011;11313;50.116;8.424;2023-06-14T12:16:04;1.90;;;1.70;;
22289;SDS011;11313;50.116;8.424;2023-06-14T12:18:36;2.22;;;1.80;;
22289;SDS011;11313;50.116;8.424;2023-06-14T12:21:03;1.67;;;1.58;;
22289;SDS011;11313;50.116;8.424;2023-06-14T12:23:39;1.67;;;1.58;;
22289;SDS011;11313;50.116;8.424;2023-06-14T12:26:11;1.88;;;1.75;;
22289;SDS011;11313;50.116;8.424;2023-06-14T12:28:42;1.60;;;1.50;;
22289;SDS011;11313;50.116;8.424;2023-06-14T12:31:09;1.75;;;1.40;;
22289;SDS011;11313;50.116;8.424;2023-06-14T12:33:36;1.60;;;1.50;;
22289;SDS011;11313;50.116;8.424;2023-06-14T12:36:05;1.65;;;1.55;;
22289;SDS011;11313;50.116;8.424;2023-06-14T12:38:32;1.95;;;1.67;;
22289;SDS011;11313;50.116;8.424;2023-06-14T12:40:58;1.70;;;1.58;;
22289;SDS011;11313;50.116;8.424;2023-06-14T12:43:23;1.90;;;1.70;;
22289;SDS011;11313;50.116;8.424;2023-06-14T12:45:49;1.60;;;1.50;;
22289;SDS011;11313;50.116;8.424;2023-06-14T12:48:14;1.98;;;1.77;;
22289;SDS011;11313;50.116;8.424;2023-06-14T12:50:40;1.63;;;1.52;;
22289;SDS011;11313;50.116;8.424;2023-06-14T12:53:06;2.28;;;1.50;;
22289;SDS011;11313;50.116;8.424;2023-06-14T12:55:32;1.60;;;1.50;;
22289;SDS011;11313;50.116;8.424;2023-06-14T12:57:58;1.67;;;1.58;;
22289;SDS011;11313;50.116;8.424;2023-06-14T13:00:23;1.60;;;1.50;;
22289;SDS011;11313;50.116;8.424;2023-06-14T13:02:51;2.03;;;1.52;;
22289;SDS011;11313;50.116;8.424;2023-06-14T13:05:17;2.05;;;1.50;;
22289;SDS011;11313;50.116;8.424;2023-06-14T13:07:42;1.83;;;1.40;;
22289;SDS011;11313;50.116;8.424;2023-06-14T13:10:08;1.52;;;1.40;;
22289;SDS011;11313;50.116;8.424;2023-06-14T13:12:34;1.55;;;1.30;;
22289;SDS011;11313;50.116;8.424;2023-06-14T13:14:59;1.52;;;1.42;;
22289;SDS011;11313;50.116;8.424;2023-06-14T13:17:25;1.88;;;1.58;;
22289;SDS011;11313;50.116;8.424;2023-06-14T13:19:51;1.55;;;1.45;;
22289;SDS011;11313;50.116;8.424;2023-06-14T13:22:16;1.88;;;1.40;;
22289;SDS011;11313;50.116;8.424;2023-06-14T13:24:42;1.60;;;1.50;;
22289;SDS011;11313;50.116;8.424;2023-06-14T13:27:07;1.42;;;1.33;;
22289;SDS011;11313;50.116;8.424;2023-06-14T13:29:33;1.75;;;1.65;;
22289;SDS011;11313;50.116;8.424;2023-06-14T13:32:00;1.60;;;1.50;;
22289;SDS011;11313;50.116;8.424;2023-06-14T13:34:26;1.60;;;1.50;;
22289;SDS011;11313;50.116;8.424;2023-06-14T13:36:52;1.55;;;1.45;;
22289;SDS011;11313;50.116;8.424;2023-06-14T13:39:18;1.60;;;1.50;;
22289;SDS011;11313;50.116;8.424;2023-06-14T13:41:51;1.60;;;1.40;;
22289;SDS011;11313;50.116;8.424;2023-06-14T13:44:16;1.92;;;1.65;;
22289;SDS011;11313;50.116;8.424;2023-06-14T13:46:43;1.60;;;1.50;;
22289;SDS011;11313;50.116;8.424;2023-06-14T13:49:09;1.80;;;1.60;;
22289;SDS011;11313;50.116;8.424;2023-06-14T13:51:35;1.48;;;1.38;;
22289;SDS011;11313;50.116;8.424;2023-06-14T13:54:01;1.63;;;1.52;;
22289;SDS011;11313;50.116;8.424;2023-06-14T13:56:26;1.58;;;1.40;;
22289;SDS011;11313;50.116;8.424;2023-06-14T13:58:52;1.70;;;1.60;;
22289;SDS011;11313;50.116;8.424;2023-06-14T14:01:17;1.40;;;1.30;;
22289;SDS011;11313;50.116;8.424;2023-06-14T14:03:45;1.52;;;1.40;;
22289;SDS011;11313;50.116;8.424;2023-06-14T14:06:11;1.50;;;1.40;;
22289;SDS011;11313;50.116;8.424;2023-06-14T14:08:37;1.33;;;1.23;;
22289;SDS011;11313;50.116;8.424;2023-06-14T14:11:02;1.77;;;1.55;;
22289;SDS011;11313;50.116;8.424;2023-06-14T14:13:28;1.42;;;1.17;;
22289;SDS011;11313;50.116;8.424;2023-06-14T14:15:54;1.33;;;1.23;;
22289;SDS011;11313;50.116;8.424;2023-06-14T14:18:19;1.40;;;1.30;;
22289;SDS011;11313;50.116;8.424;2023-06-14T14:20:48;3.30;;;1.38;;
22289;SDS011;11313;50.116;8.424;2023-06-14T14:23:14;1.75;;;1.40;;
22289;SDS011;11313;50.116;8.424;2023-06-14T14:25:39;1.50;;;1.40;;
22289;SDS011;11313;50.116;8.424;2023-06-14T14:28:05;1.42;;;1.33;;
22289;SDS011;11313;50.116;8.424;2023-06-14T14:30:31;1.50;;;1.40;;
22289;SDS011;11313;50.116;8.424;2023-06-14T14:32:56;1.50;;;1.40;;
22289;SDS011;11313;50.116;8.424;2023-06-14T14:35:22;2.08;;;1.40;;
22289;SDS011;11313;50.116;8.424;2023-06-14T14:37:49;1.40;;;1.30;;
22289;SDS011;11313;50.116;8.424;2023-06-14T14:40:14;1.50;;;1.40;;
22289;SDS011;11313;50.116;8.424;2023-06-14T14:42:40;1.30;;;1.20;;
22289;SDS011;11313;50.116;8.424;2023-06-14T14:45:06;2.10;;;1.40;;
22289;SDS011;11313;50.116;8.424;2023-06-14T14:47:31;1.30;;;1.20;;
22289;SDS011;11313;50.116;8.424;2023-06-14T14:49:57;1.45;;;1.33;;
22289;SDS011;11313;50.116;8.424;2023-06-14T14:52:22;1.67;;;1.58;;
22289;SDS011;11313;50.116;8.424;2023-06-14T14:54:48;1.58;;;1.40;;
22289;SDS011;11313;50.116;8.424;2023-06-14T14:57:13;1.83;;;1.50;;
22289;SDS011;11313;50.116;8.424;2023-06-14T14:59:39;1.50;;;1.40;;
22289;SDS011;11313;50.116;8.424;2023-06-14T15:02:05;2.08;;;1.55;;
22289;SDS011;11313;50.116;8.424;2023-06-14T15:04:31;1.40;;;1.30;;